sensor_id;sensor_type;location;lat;lon;timestamp;pressure;altitude;pressure_sealevel;temperature;humidity
62122;BME280;48108;47.532;19.084;2023-05-23T03:57:00;100099.56;;;14.22;100.00
62122;BME280;48108;47.532;19.084;2023-05-23T04:00:05;100094.97;;;14.29;100.00
62122;BME280;48108;47.532;19.084;2023-05-23T04:03:19;100100.16;;;14.38;100.00
62122;BME280;48108;47.532;19.084;2023-05-23T04:06:22;100093.50;;;14.47;100.00
62122;BME280;48108;47.532;19.084;2023-05-23T04:09:26;100096.22;;;14.54;100.00
62122;BME280;48108;47.532;19.084;2023-05-23T04:12:29;100095.59;;;14.58;100.00
62122;BME280;48108;47.532;19.084;2023-05-23T04:15:32;100094.75;;;14.64;100.00
62122;BME280;48108;47.532;19.084;2023-05-23T04:18:37;100100.38;;;14.69;100.00
62122;BME280;48108;47.532;19.084;2023-05-23T04:21:41;100105.97;;;14.81;100.00
62122;BME280;48108;47.532;19.084;2023-05-23T04:24:44;100107.00;;;14.87;100.00
62122;BME280;48108;47.532;19.084;2023-05-23T04:27:46;100104.91;;;14.95;100.00
62122;BME280;48108;47.532;19.084;2023-05-23T04:30:50;100093.59;;;15.05;100.00
62122;BME280;48108;47.532;19.084;2023-05-23T04:33:53;100109.22;;;15.10;100.00
62122;BME280;48108;47.532;19.084;2023-05-23T04:36:57;100099.78;;;15.26;100.00
62122;BME280;48108;47.532;19.084;2023-05-23T04:40:00;100103.47;;;15.38;100.00
62122;BME280;48108;47.532;19.084;2023-05-23T04:43:04;100098.41;;;15.48;100.00
62122;BME280;48108;47.532;19.084;2023-05-23T04:46:09;100097.50;;;15.61;100.00
62122;BME280;48108;47.532;19.084;2023-05-23T04:49:12;100099.34;;;15.74;100.00
62122;BME280;48108;47.532;19.084;2023-05-23T04:52:16;100092.44;;;15.78;100.00
62122;BME280;48108;47.532;19.084;2023-05-23T04:55:20;100092.94;;;15.93;100.00
62122;BME280;48108;47.532;19.084;2023-05-23T04:58:24;100097.84;;;16.09;100.00
62122;BME280;48108;47.532;19.084;2023-05-23T05:01:28;100090.25;;;16.18;100.00
62122;BME280;48108;47.532;19.084;2023-05-23T05:04:31;100092.28;;;16.23;100.00
62122;BME280;48108;47.532;19.084;2023-05-23T05:07:35;100092.91;;;16.25;100.00
62122;BME280;48108;47.532;19.084;2023-05-23T05:10:39;100085.81;;;16.24;100.00
62122;BME280;48108;47.532;19.084;2023-05-23T05:13:44;100091.75;;;16.39;100.00
62122;BME280;48108;47.532;19.084;2023-05-23T05:16:48;100094.56;;;16.51;100.00
62122;BME280;48108;47.532;19.084;2023-05-23T05:19:54;100093.03;;;16.55;100.00
62122;BME280;48108;47.532;19.084;2023-05-23T05:22:57;100103.62;;;16.63;100.00
62122;BME280;48108;47.532;19.084;2023-05-23T05:26:00;100092.13;;;16.86;100.00
62122;BME280;48108;47.532;19.084;2023-05-23T05:29:03;100099.38;;;16.92;100.00
62122;BME280;48108;47.532;19.084;2023-05-23T05:32:06;100091.22;;;17.11;100.00
62122;BME280;48108;47.532;19.084;2023-05-23T05:35:10;100092.88;;;17.30;100.00
62122;BME280;48108;47.532;19.084;2023-05-23T05:38:16;100092.25;;;17.47;100.00
62122;BME280;48108;47.532;19.084;2023-05-23T05:41:20;100090.72;;;17.51;100.00
62122;BME280;48108;47.532;19.084;2023-05-23T05:44:24;100089.53;;;17.47;100.00
62122;BME280;48108;47.532;19.084;2023-05-23T05:47:28;100096.09;;;17.69;100.00
62122;BME280;48108;47.532;19.084;2023-05-23T05:50:31;100091.81;;;17.92;100.00
62122;BME280;48108;47.532;19.084;2023-05-23T05:53:34;100087.84;;;18.06;100.00
62122;BME280;48108;47.532;19.084;2023-05-23T05:56:37;100091.03;;;18.15;100.00
62122;BME280;48108;47.532;19.084;2023-05-23T05:59:40;100085.84;;;18.25;100.00
62122;BME280;48108;47.532;19.084;2023-05-23T06:02:43;100084.78;;;18.38;100.00
62122;BME280;48108;47.532;19.084;2023-05-23T06:05:50;100082.62;;;18.28;100.00
62122;BME280;48108;47.532;19.084;2023-05-23T06:08:52;100080.16;;;18.26;100.00
62122;BME280;48108;47.532;19.084;2023-05-23T06:11:55;100089.88;;;18.22;100.00
62122;BME280;48108;47.532;19.084;2023-05-23T06:14:58;100083.22;;;18.30;100.00
62122;BME280;48108;47.532;19.084;2023-05-23T06:18:01;100086.31;;;18.33;100.00
62122;BME280;48108;47.532;19.084;2023-05-23T06:21:04;100085.38;;;18.51;100.00
62122;BME280;48108;47.532;19.084;2023-05-23T06:24:08;100084.56;;;18.74;100.00
62122;BME280;48108;47.532;19.084;2023-05-23T06:27:11;100088.47;;;18.90;100.00
62122;BME280;48108;47.532;19.084;2023-05-23T06:30:15;100080.59;;;19.06;100.00
62122;BME280;48108;47.532;19.084;2023-05-23T06:33:19;100084.09;;;19.30;100.00
62122;BME280;48108;47.532;19.084;2023-05-23T06:36:23;100089.38;;;19.48;100.00
62122;BME280;48108;47.532;19.084;2023-05-23T06:39:26;100088.41;;;19.54;98.25
62122;BME280;48108;47.532;19.084;2023-05-23T06:42:29;100089.56;;;19.87;98.25
62122;BME280;48108;47.532;19.084;2023-05-23T06:45:36;100081.81;;;20.12;97.42
62122;BME280;48108;47.532;19.084;2023-05-23T06:48:40;100077.66;;;20.27;94.82
62122;BME280;48108;47.532;19.084;2023-05-23T06:51:42;100077.91;;;20.42;92.14
62122;BME280;48108;47.532;19.084;2023-05-23T06:54:46;100078.91;;;20.53;89.75
62122;BME280;48108;47.532;19.084;2023-05-23T06:57:49;100077.06;;;20.58;90.72
62122;BME280;48108;47.532;19.084;2023-05-23T07:03:59;100073.09;;;20.88;89.80
62122;BME280;48108;47.532;19.084;2023-05-23T07:07:02;100068.47;;;21.11;87.57
62122;BME280;48108;47.532;19.084;2023-05-23T07:10:06;100068.41;;;21.05;86.77
62122;BME280;48108;47.532;19.084;2023-05-23T07:13:09;100064.88;;;21.32;87.71
62122;BME280;48108;47.532;19.084;2023-05-23T07:16:12;100057.00;;;21.58;87.02
62122;BME280;48108;47.532;19.084;2023-05-23T07:19:19;100047.56;;;21.76;84.96
62122;BME280;48108;47.532;19.084;2023-05-23T07:22:22;100044.13;;;21.90;87.79
62122;BME280;48108;47.532;19.084;2023-05-23T07:25:26;100045.28;;;21.94;81.64
62122;BME280;48108;47.532;19.084;2023-05-23T07:28:29;100044.31;;;22.11;82.58
62122;BME280;48108;47.532;19.084;2023-05-23T07:31:33;100045.00;;;22.23;83.38
62122;BME280;48108;47.532;19.084;2023-05-23T07:34:36;100044.81;;;22.35;81.18
62122;BME280;48108;47.532;19.084;2023-05-23T07:37:39;100046.84;;;22.55;77.27
62122;BME280;48108;47.532;19.084;2023-05-23T07:40:42;100041.09;;;22.56;77.80
62122;BME280;48108;47.532;19.084;2023-05-23T07:43:52;100037.31;;;22.68;77.96
62122;BME280;48108;47.532;19.084;2023-05-23T07:46:54;100046.19;;;22.85;76.11
62122;BME280;48108;47.532;19.084;2023-05-23T07:49:58;100042.09;;;22.87;74.92
62122;BME280;48108;47.532;19.084;2023-05-23T07:53:05;100035.31;;;23.00;73.32
62122;BME280;48108;47.532;19.084;2023-05-23T07:56:08;100037.31;;;23.25;74.73
62122;BME280;48108;47.532;19.084;2023-05-23T07:59:11;100040.31;;;23.24;70.23
62122;BME280;48108;47.532;19.084;2023-05-23T08:02:16;100027.47;;;23.35;74.57
62122;BME280;48108;47.532;19.084;2023-05-23T08:05:19;100027.75;;;23.53;72.76
62122;BME280;48108;47.532;19.084;2023-05-23T08:08:25;100024.19;;;23.68;70.98
62122;BME280;48108;47.532;19.084;2023-05-23T08:11:28;100022.59;;;23.88;70.27
62122;BME280;48108;47.532;19.084;2023-05-23T08:14:31;100023.16;;;24.00;71.90
62122;BME280;48108;47.532;19.084;2023-05-23T08:17:52;100025.91;;;24.10;72.15
62122;BME280;48108;47.532;19.084;2023-05-23T08:20:58;100028.09;;;24.13;70.98
62122;BME280;48108;47.532;19.084;2023-05-23T08:24:01;100026.97;;;24.30;71.33
62122;BME280;48108;47.532;19.084;2023-05-23T08:27:04;100018.97;;;24.54;68.24
62122;BME280;48108;47.532;19.084;2023-05-23T08:30:10;100032.16;;;24.67;68.08
62122;BME280;48108;47.532;19.084;2023-05-23T08:33:15;100024.38;;;24.84;65.94
62122;BME280;48108;47.532;19.084;2023-05-23T08:36:18;100028.47;;;24.92;67.95
62122;BME280;48108;47.532;19.084;2023-05-23T08:39:21;100026.00;;;24.96;67.37
62122;BME280;48108;47.532;19.084;2023-05-23T08:42:25;100029.50;;;25.17;64.57
62122;BME280;48108;47.532;19.084;2023-05-23T08:45:29;100022.25;;;25.36;64.92
62122;BME280;48108;47.532;19.084;2023-05-23T08:48:33;100028.44;;;25.02;62.92
62122;BME280;48108;47.532;19.084;2023-05-23T08:51:42;100017.34;;;25.12;65.58
62122;BME280;48108;47.532;19.084;2023-05-23T08:54:47;100021.94;;;25.38;66.46
62122;BME280;48108;47.532;19.084;2023-05-23T08:57:53;100018.72;;;25.65;63.74
62122;BME280;48108;47.532;19.084;2023-05-23T09:00:58;100015.91;;;25.75;62.79
62122;BME280;48108;47.532;19.084;2023-05-23T09:04:01;100016.63;;;25.91;60.81
62122;BME280;48108;47.532;19.084;2023-05-23T09:07:10;100006.72;;;25.90;62.29
62122;BME280;48108;47.532;19.084;2023-05-23T09:10:14;100010.50;;;25.99;62.69
62122;BME280;48108;47.532;19.084;2023-05-23T09:13:21;100014.22;;;26.13;59.88
62122;BME280;48108;47.532;19.084;2023-05-23T09:16:31;100016.84;;;26.29;57.31
62122;BME280;48108;47.532;19.084;2023-05-23T09:19:40;100020.22;;;26.20;59.50
62122;BME280;48108;47.532;19.084;2023-05-23T09:22:45;100019.44;;;26.44;57.79
62122;BME280;48108;47.532;19.084;2023-05-23T09:25:49;100012.63;;;26.36;57.46
62122;BME280;48108;47.532;19.084;2023-05-23T09:28:56;100006.91;;;26.57;58.98
62122;BME280;48108;47.532;19.084;2023-05-23T09:32:12;100009.31;;;26.87;57.18
62122;BME280;48108;47.532;19.084;2023-05-23T09:35:16;100009.06;;;26.84;55.57
62122;BME280;48108;47.532;19.084;2023-05-23T09:38:25;100003.19;;;26.90;58.07
62122;BME280;48108;47.532;19.084;2023-05-23T09:41:29;100004.41;;;27.03;54.77
62122;BME280;48108;47.532;19.084;2023-05-23T09:44:40;100010.00;;;26.98;55.08
62122;BME280;48108;47.532;19.084;2023-05-23T09:47:53;100002.44;;;27.28;56.34
62122;BME280;48108;47.532;19.084;2023-05-23T09:51:03;100005.22;;;27.47;50.32
62122;BME280;48108;47.532;19.084;2023-05-23T09:54:06;99998.63;;;27.43;50.04
62122;BME280;48108;47.532;19.084;2023-05-23T09:57:10;100000.22;;;27.30;47.58
62122;BME280;48108;47.532;19.084;2023-05-23T10:00:13;99996.31;;;27.50;47.73
62122;BME280;48108;47.532;19.084;2023-05-23T10:03:21;100001.59;;;27.84;46.49
62122;BME280;48108;47.532;19.084;2023-05-23T10:06:31;100007.50;;;27.96;45.22
62122;BME280;48108;47.532;19.084;2023-05-23T10:09:38;99988.19;;;28.24;45.81
62122;BME280;48108;47.532;19.084;2023-05-23T10:12:48;99988.84;;;28.48;42.48
62122;BME280;48108;47.532;19.084;2023-05-23T10:16:08;99995.13;;;28.82;42.37
62122;BME280;48108;47.532;19.084;2023-05-23T10:19:22;99989.25;;;29.11;42.54
62122;BME280;48108;47.532;19.084;2023-05-23T10:22:26;99980.59;;;29.26;42.08
62122;BME280;48108;47.532;19.084;2023-05-23T10:25:30;99980.28;;;29.50;43.08
62122;BME280;48108;47.532;19.084;2023-05-23T10:28:33;99973.75;;;29.91;42.39
62122;BME280;48108;47.532;19.084;2023-05-23T10:31:37;99972.38;;;30.02;44.09
62122;BME280;48108;47.532;19.084;2023-05-23T10:34:58;99977.87;;;30.65;42.26
62122;BME280;48108;47.532;19.084;2023-05-23T10:44:37;99972.53;;;28.88;43.44
62122;BME280;48108;47.532;19.084;2023-05-23T10:47:40;99968.78;;;28.10;45.40
62122;BME280;48108;47.532;19.084;2023-05-23T10:50:43;99969.09;;;28.22;45.91
62122;BME280;48108;47.532;19.084;2023-05-23T10:53:52;99970.03;;;29.14;45.27
62122;BME280;48108;47.532;19.084;2023-05-23T10:57:03;99966.31;;;30.00;44.38
62122;BME280;48108;47.532;19.084;2023-05-23T11:00:14;99960.44;;;30.73;40.13
62122;BME280;48108;47.532;19.084;2023-05-23T11:03:17;99949.91;;;31.18;40.96
62122;BME280;48108;47.532;19.084;2023-05-23T11:10:09;99940.31;;;32.15;40.27
62122;BME280;48108;47.532;19.084;2023-05-23T11:13:13;99945.47;;;33.02;37.98
62122;BME280;48108;47.532;19.084;2023-05-23T11:16:25;99934.06;;;32.86;34.92
62122;BME280;48108;47.532;19.084;2023-05-23T11:19:29;99928.94;;;31.65;37.48
62122;BME280;48108;47.532;19.084;2023-05-23T11:22:33;99929.78;;;31.13;38.40
62122;BME280;48108;47.532;19.084;2023-05-23T11:25:51;99917.06;;;30.55;39.73
62122;BME280;48108;47.532;19.084;2023-05-23T11:28:55;99919.72;;;31.99;38.31
62122;BME280;48108;47.532;19.084;2023-05-23T11:31:59;99914.59;;;33.07;34.49
62122;BME280;48108;47.532;19.084;2023-05-23T11:35:03;99910.50;;;33.92;33.85
62122;BME280;48108;47.532;19.084;2023-05-23T11:38:08;99915.13;;;34.46;31.60
62122;BME280;48108;47.532;19.084;2023-05-23T11:41:11;99905.22;;;33.66;33.06
62122;BME280;48108;47.532;19.084;2023-05-23T11:44:14;99893.72;;;34.38;30.84
62122;BME280;48108;47.532;19.084;2023-05-23T11:47:17;99896.75;;;35.22;31.84
62122;BME280;48108;47.532;19.084;2023-05-23T11:50:20;99889.41;;;36.53;28.19
62122;BME280;48108;47.532;19.084;2023-05-23T11:53:26;99876.19;;;35.74;28.35
62122;BME280;48108;47.532;19.084;2023-05-23T11:56:29;99878.34;;;35.65;28.62
62122;BME280;48108;47.532;19.084;2023-05-23T11:59:32;99877.84;;;35.91;28.39
62122;BME280;48108;47.532;19.084;2023-05-23T12:02:39;99874.59;;;37.27;29.07
62122;BME280;48108;47.532;19.084;2023-05-23T12:05:43;99862.09;;;36.02;28.94
62122;BME280;48108;47.532;19.084;2023-05-23T12:08:46;99857.25;;;34.22;31.72
62122;BME280;48108;47.532;19.084;2023-05-23T12:11:49;99853.53;;;34.95;30.42
62122;BME280;48108;47.532;19.084;2023-05-23T12:14:55;99853.09;;;36.25;28.77
62122;BME280;48108;47.532;19.084;2023-05-23T12:17:58;99849.31;;;35.01;30.03
62122;BME280;48108;47.532;19.084;2023-05-23T12:21:05;99846.25;;;37.12;28.97
62122;BME280;48108;47.532;19.084;2023-05-23T12:24:18;99843.03;;;38.78;25.36
62122;BME280;48108;47.532;19.084;2023-05-23T12:27:28;99830.63;;;39.13;25.74
62122;BME280;48108;47.532;19.084;2023-05-23T12:30:40;99823.16;;;38.38;25.35
62122;BME280;48108;47.532;19.084;2023-05-23T12:33:45;99826.66;;;38.54;26.55
62122;BME280;48108;47.532;19.084;2023-05-23T12:36:54;99822.31;;;40.02;24.05
62122;BME280;48108;47.532;19.084;2023-05-23T12:40:17;99808.84;;;41.17;22.30
62122;BME280;48108;47.532;19.084;2023-05-23T12:43:21;99806.94;;;42.07;21.03
62122;BME280;48108;47.532;19.084;2023-05-23T12:46:24;99821.59;;;40.78;20.84
62122;BME280;48108;47.532;19.084;2023-05-23T12:49:28;99807.06;;;40.69;20.77
62122;BME280;48108;47.532;19.084;2023-05-23T12:52:30;99807.31;;;42.30;20.65
62122;BME280;48108;47.532;19.084;2023-05-23T12:55:33;99806.09;;;41.53;20.77
62122;BME280;48108;47.532;19.084;2023-05-23T12:58:36;99796.66;;;38.95;23.15
62122;BME280;48108;47.532;19.084;2023-05-23T13:01:39;99793.69;;;35.56;27.24
62122;BME280;48108;47.532;19.084;2023-05-23T13:04:42;99796.75;;;35.07;27.50
62122;BME280;48108;47.532;19.084;2023-05-23T13:07:46;99790.47;;;35.70;26.17
62122;BME280;48108;47.532;19.084;2023-05-23T13:10:49;99776.59;;;35.45;26.65
62122;BME280;48108;47.532;19.084;2023-05-23T13:13:52;99777.38;;;33.84;28.74
62122;BME280;48108;47.532;19.084;2023-05-23T13:16:54;99777.16;;;35.07;28.69
62122;BME280;48108;47.532;19.084;2023-05-23T13:19:58;99777.78;;;37.86;24.74
62122;BME280;48108;47.532;19.084;2023-05-23T13:23:00;99783.53;;;39.88;22.13
62122;BME280;48108;47.532;19.084;2023-05-23T13:26:04;99777.28;;;38.90;23.13
62122;BME280;48108;47.532;19.084;2023-05-23T13:29:07;99777.50;;;35.97;26.58
62122;BME280;48108;47.532;19.084;2023-05-23T13:32:10;99773.94;;;34.64;27.88
62122;BME280;48108;47.532;19.084;2023-05-23T13:35:13;99774.56;;;36.99;26.24
62122;BME280;48108;47.532;19.084;2023-05-23T13:38:17;99772.84;;;38.55;23.38
62122;BME280;48108;47.532;19.084;2023-05-23T13:41:20;99769.62;;;39.24;22.95
62122;BME280;48108;47.532;19.084;2023-05-23T13:44:23;99775.84;;;40.44;22.77
62122;BME280;48108;47.532;19.084;2023-05-23T13:47:26;99763.66;;;42.24;20.44
62122;BME280;48108;47.532;19.084;2023-05-23T13:50:29;99765.75;;;41.81;19.34
62122;BME280;48108;47.532;19.084;2023-05-23T13:53:32;99762.06;;;42.20;19.61
62122;BME280;48108;47.532;19.084;2023-05-23T13:56:35;99762.09;;;41.77;19.67
62122;BME280;48108;47.532;19.084;2023-05-23T13:59:39;99770.16;;;42.00;18.97
62122;BME280;48108;47.532;19.084;2023-05-23T14:02:42;99764.78;;;40.94;20.50
62122;BME280;48108;47.532;19.084;2023-05-23T14:05:46;99754.59;;;39.51;20.45
62122;BME280;48108;47.532;19.084;2023-05-23T14:08:48;99760.47;;;37.38;23.31
62122;BME280;48108;47.532;19.084;2023-05-23T14:11:51;99750.91;;;36.42;24.26
62122;BME280;48108;47.532;19.084;2023-05-23T14:14:54;99747.97;;;35.52;26.49
62122;BME280;48108;47.532;19.084;2023-05-23T14:17:57;99758.50;;;34.30;27.29
62122;BME280;48108;47.532;19.084;2023-05-23T14:21:00;99750.97;;;32.90;28.72
62122;BME280;48108;47.532;19.084;2023-05-23T14:24:03;99745.62;;;32.22;29.70
62122;BME280;48108;47.532;19.084;2023-05-23T14:27:06;99742.63;;;32.06;29.19
62122;BME280;48108;47.532;19.084;2023-05-23T14:30:12;99739.88;;;31.68;31.13
62122;BME280;48108;47.532;19.084;2023-05-23T14:33:15;99736.31;;;30.51;32.38
62122;BME280;48108;47.532;19.084;2023-05-23T14:36:18;99743.81;;;30.33;31.43
62122;BME280;48108;47.532;19.084;2023-05-23T14:39:21;99741.22;;;30.28;32.31
62122;BME280;48108;47.532;19.084;2023-05-23T14:42:24;99749.72;;;30.40;30.53
62122;BME280;48108;47.532;19.084;2023-05-23T14:45:26;99745.56;;;30.20;32.09
62122;BME280;48108;47.532;19.084;2023-05-23T14:48:29;99746.00;;;29.88;32.41
62122;BME280;48108;47.532;19.084;2023-05-23T14:51:32;99737.84;;;29.91;32.76
62122;BME280;48108;47.532;19.084;2023-05-23T14:54:51;99738.19;;;30.16;33.54
62122;BME280;48108;47.532;19.084;2023-05-23T14:57:57;99742.94;;;30.06;33.23
62122;BME280;48108;47.532;19.084;2023-05-23T15:01:00;99740.94;;;29.90;33.06
62122;BME280;48108;47.532;19.084;2023-05-23T15:04:03;99743.69;;;29.81;33.29
62122;BME280;48108;47.532;19.084;2023-05-23T15:07:07;99749.25;;;29.50;33.54
62122;BME280;48108;47.532;19.084;2023-05-23T15:10:10;99752.16;;;29.45;36.08
62122;BME280;48108;47.532;19.084;2023-05-23T15:13:13;99761.88;;;29.33;34.23
62122;BME280;48108;47.532;19.084;2023-05-23T15:16:15;99756.56;;;29.14;34.63
62122;BME280;48108;47.532;19.084;2023-05-23T15:19:19;99748.41;;;28.96;35.26
62122;BME280;48108;47.532;19.084;2023-05-23T15:22:22;99748.25;;;28.92;36.30
62122;BME280;48108;47.532;19.084;2023-05-23T15:25:39;99754.19;;;28.99;35.83
62122;BME280;48108;47.532;19.084;2023-05-23T15:28:51;99754.03;;;28.59;36.60
62122;BME280;48108;47.532;19.084;2023-05-23T15:31:54;99757.25;;;28.75;36.46
62122;BME280;48108;47.532;19.084;2023-05-23T15:34:57;99767.13;;;28.67;36.56
62122;BME280;48108;47.532;19.084;2023-05-23T15:38:00;99769.59;;;28.69;37.87
62122;BME280;48108;47.532;19.084;2023-05-23T15:41:02;99775.38;;;28.59;37.16
62122;BME280;48108;47.532;19.084;2023-05-23T15:44:06;99782.59;;;28.32;40.40
62122;BME280;48108;47.532;19.084;2023-05-23T15:47:09;99781.16;;;27.38;41.46
62122;BME280;48108;47.532;19.084;2023-05-23T15:50:13;99773.88;;;26.77;43.38
62122;BME280;48108;47.532;19.084;2023-05-23T15:53:15;99760.34;;;26.75;45.32
62122;BME280;48108;47.532;19.084;2023-05-23T15:56:21;99758.94;;;26.59;44.24
